createdAt,value
2022-07-25T00:01:31.459Z,97689.90
2022-07-25T00:03:59.746Z,97688.15
2022-07-25T00:06:27.955Z,97691.84
2022-07-25T00:08:55.939Z,97691.74
2022-07-25T00:11:24.078Z,97697.12
2022-07-25T00:13:52.093Z,97694.48
2022-07-25T00:16:20.499Z,97695.10
2022-07-25T00:18:48.820Z,97691.95
2022-07-25T00:21:16.960Z,97693.45
2022-07-25T00:23:45.002Z,97700.60
2022-07-25T00:26:13.076Z,97700.34
2022-07-25T00:28:41.102Z,97705.27
2022-07-25T00:31:09.100Z,97704.60
2022-07-25T00:33:37.175Z,97706.57
2022-07-25T00:36:06.130Z,97705.30
2022-07-25T00:38:34.933Z,97706.23
2022-07-25T00:41:04.363Z,97705.69
2022-07-25T00:43:34.903Z,97703.21
2022-07-25T00:46:03.259Z,97707.30
2022-07-25T00:48:31.361Z,97706.52
2022-07-25T00:50:59.878Z,97707.77
2022-07-25T00:53:27.926Z,97702.52
2022-07-25T00:55:56.186Z,97704.27
2022-07-25T00:58:25.195Z,97704.07
2022-07-25T01:00:53.394Z,97702.27
2022-07-25T01:03:21.545Z,97703.36
2022-07-25T01:05:53.689Z,97698.82
2022-07-25T01:08:23.080Z,97700.91
2022-07-25T01:10:51.146Z,97698.98
2022-07-25T01:13:19.334Z,97700.35
2022-07-25T01:15:49.077Z,97698.68
2022-07-25T01:18:17.640Z,97693.80
2022-07-25T01:20:45.737Z,97690.77
2022-07-25T01:23:13.881Z,97688.05
2022-07-25T01:25:41.987Z,97688.46
2022-07-25T01:28:10.156Z,97687.12
2022-07-25T01:30:38.266Z,97684.86
2022-07-25T01:33:06.717Z,97684.36
2022-07-25T01:35:37.982Z,97682.81
2022-07-25T01:38:09.717Z,97686.66
2022-07-25T01:40:38.309Z,97685.55
2022-07-25T01:43:06.821Z,97686.66
2022-07-25T01:45:35.507Z,97684.09
2022-07-25T01:48:04.385Z,97681.84
2022-07-25T01:50:32.412Z,97681.30
2022-07-25T01:53:00.487Z,97679.45
2022-07-25T01:55:28.448Z,97678.80
2022-07-25T01:57:57.943Z,97683.15
2022-07-25T02:00:25.947Z,97678.52
2022-07-25T02:03:13.951Z,97676.30
2022-07-25T02:05:42.260Z,97678.04
2022-07-25T02:08:11.303Z,97687.50
2022-07-25T02:10:39.343Z,97689.08
2022-07-25T02:13:07.587Z,97685.80
2022-07-25T02:15:36.180Z,97690.40
2022-07-25T02:18:04.780Z,97693.08
2022-07-25T02:20:32.994Z,97693.50
2022-07-25T02:23:01.064Z,97694.14
2022-07-25T02:25:29.089Z,97692.69
2022-07-25T02:27:57.187Z,97697.21
2022-07-25T02:30:26.298Z,97699.77
2022-07-25T02:32:54.355Z,97703.09
2022-07-25T02:35:22.687Z,97704.38
2022-07-25T02:37:50.844Z,97702.35
2022-07-25T02:40:18.790Z,97709.55
2022-07-25T02:42:46.869Z,97711.38
2022-07-25T02:45:14.844Z,97716.18
2022-07-25T02:47:43.041Z,97720.35
2022-07-25T02:50:14.779Z,97714.30
2022-07-25T02:52:43.875Z,97715.23
2022-07-25T02:55:12.115Z,97715.78
2022-07-25T02:57:40.190Z,97715.92
2022-07-25T03:00:08.792Z,97718.65
2022-07-25T03:02:37.997Z,97716.21
2022-07-25T03:05:11.341Z,97714.99
2022-07-25T03:07:39.451Z,97713.81
2022-07-25T03:10:11.437Z,97713.63
2022-07-25T03:12:40.771Z,97716.70
2022-07-25T03:15:09.614Z,97715.02
2022-07-25T03:17:38.520Z,97716.44
2022-07-25T03:20:08.613Z,97716.56
2022-07-25T03:22:37.035Z,97719.46
2022-07-25T03:25:05.656Z,97720.39
2022-07-25T03:27:43.459Z,97716.23
2022-07-25T03:30:12.390Z,97713.46
2022-07-25T03:32:41.454Z,97717.52
2022-07-25T03:35:09.804Z,97717.39
2022-07-25T03:37:37.912Z,97716.73
2022-07-25T03:40:06.814Z,97713.25
2022-07-25T03:42:36.141Z,97715.16
2022-07-25T03:45:05.321Z,97716.77
2022-07-25T03:47:33.483Z,97713.83
2022-07-25T03:50:01.811Z,97710.97
2022-07-25T03:52:29.930Z,97711.77
2022-07-25T03:54:59.084Z,97705.86
2022-07-25T03:57:27.066Z,97706.27
2022-07-25T03:59:55.166Z,97708.25
2022-07-25T04:02:23.212Z,97706.86
2022-07-25T04:04:51.807Z,97710.26
2022-07-25T04:07:20.416Z,97705.19
2022-07-25T04:09:48.420Z,97701.06
2022-07-25T04:12:16.403Z,97702.73
2022-07-25T04:14:44.786Z,97701.54
2022-07-25T04:17:12.985Z,97703.56
2022-07-25T04:19:41.351Z,97703.49
2022-07-25T04:22:09.494Z,97700.33
2022-07-25T04:24:37.653Z,97698.90
2022-07-25T04:27:05.840Z,97694.86
2022-07-25T04:29:33.888Z,97696.60
2022-07-25T04:32:02.476Z,97699.55
2022-07-25T04:34:31.204Z,97697.38
2022-07-25T04:36:59.369Z,97696.45
2022-07-25T04:39:27.567Z,97696.81
2022-07-25T04:41:56.042Z,97696.64
2022-07-25T04:44:24.536Z,97692.96
2022-07-25T04:46:52.654Z,97685.84
2022-07-25T04:49:28.037Z,97682.86
2022-07-25T04:51:59.537Z,97682.77
2022-07-25T04:54:27.764Z,97679.95
2022-07-25T04:56:56.052Z,97680.00
2022-07-25T04:59:24.320Z,97681.89
2022-07-25T05:01:52.508Z,97672.22
2022-07-25T05:04:20.572Z,97674.51
2022-07-25T05:06:48.745Z,97675.41
2022-07-25T05:09:16.839Z,97674.75
2022-07-25T05:11:48.592Z,97674.41
2022-07-25T05:14:17.651Z,97676.08
2022-07-25T05:16:48.936Z,97678.04
2022-07-25T05:19:17.175Z,97674.64
2022-07-25T05:21:45.487Z,97675.54
2022-07-25T05:24:13.747Z,97677.55
2022-07-25T05:26:41.782Z,97677.04
2022-07-25T05:29:10.619Z,97675.41
2022-07-25T05:31:38.834Z,97678.40
2022-07-25T05:34:07.827Z,97678.52
2022-07-25T05:36:36.221Z,97674.59
2022-07-25T05:39:04.435Z,97672.95
2022-07-25T05:41:32.747Z,97667.21
2022-07-25T05:44:00.926Z,97664.23
2022-07-25T05:46:29.232Z,97662.07
2022-07-25T05:48:57.293Z,97663.83
2022-07-25T05:51:27.595Z,97666.36
2022-07-25T05:53:55.990Z,97663.34
2022-07-25T05:56:25.002Z,97665.14
2022-07-25T05:58:54.079Z,97663.34
2022-07-25T06:01:22.394Z,97657.70
2022-07-25T06:03:50.584Z,97656.02
2022-07-25T06:06:18.678Z,97651.69
2022-07-25T06:08:46.914Z,97659.77
2022-07-25T06:11:16.454Z,97660.52
2022-07-25T06:13:44.770Z,97659.86
2022-07-25T06:16:13.417Z,97661.52
2022-07-25T06:18:41.641Z,97659.05
2022-07-25T06:21:09.868Z,97650.68
2022-07-25T06:23:38.097Z,97647.58
2022-07-25T06:26:11.023Z,97647.83
2022-07-25T06:28:42.174Z,97644.39
2022-07-25T06:31:10.520Z,97640.87
2022-07-25T06:33:39.167Z,97639.94
2022-07-25T06:36:08.003Z,97636.54
2022-07-25T06:38:36.718Z,97635.05
2022-07-25T06:41:05.419Z,97637.23
2022-07-25T06:43:34.340Z,97633.08
2022-07-25T06:46:03.763Z,97631.45
2022-07-25T06:48:32.585Z,97630.11
2022-07-25T06:51:00.929Z,97628.27
2022-07-25T06:53:29.527Z,97625.89
2022-07-25T06:55:57.770Z,97624.77
2022-07-25T06:58:26.147Z,97619.86
2022-07-25T07:00:54.618Z,97614.95
2022-07-25T07:03:23.938Z,97613.96
2022-07-25T07:05:52.160Z,97613.34
2022-07-25T07:08:20.264Z,97611.09
2022-07-25T07:10:54.446Z,97605.33
2022-07-25T07:13:24.586Z,97601.10
2022-07-25T07:15:52.985Z,97595.56
2022-07-25T07:18:22.288Z,97596.81
2022-07-25T07:20:51.869Z,97598.23
2022-07-25T07:23:21.762Z,97596.95
2022-07-25T07:25:49.981Z,97592.40
2022-07-25T07:28:18.288Z,97598.83
2022-07-25T07:33:38.219Z,97597.55
2022-07-25T07:36:06.810Z,97594.81
2022-07-25T07:38:36.139Z,97596.53
2022-07-25T07:41:04.704Z,97592.95
2022-07-25T07:43:32.799Z,97591.34
2022-07-25T07:46:01.764Z,97588.15
2022-07-25T07:48:32.633Z,97589.10
2022-07-25T07:51:02.223Z,97591.43
2022-07-25T07:53:52.424Z,97592.83
2022-07-25T07:56:20.647Z,97589.35
2022-07-25T07:58:50.751Z,97589.66
2022-07-25T08:01:22.167Z,97585.78
2022-07-25T08:03:53.662Z,97585.63
2022-07-25T08:06:23.743Z,97582.23
2022-07-25T08:08:52.019Z,97581.77
2022-07-25T08:11:20.466Z,97578.84
2022-07-25T08:13:48.834Z,97577.00
2022-07-25T08:16:17.656Z,97573.69
2022-07-25T08:18:46.653Z,97566.49
2022-07-25T08:21:15.469Z,97568.60
2022-07-25T08:23:46.621Z,97571.40
2022-07-25T08:26:20.331Z,97568.50
2022-07-25T08:29:04.889Z,97565.45
2022-07-25T08:31:41.761Z,97564.17
2022-07-25T08:34:10.172Z,97567.40
2022-07-25T08:36:39.760Z,97564.96
2022-07-25T08:39:07.928Z,97563.77
2022-07-25T08:41:40.120Z,97563.73
2022-07-25T08:44:10.478Z,97560.98
2022-07-25T08:46:43.814Z,97559.33
2022-07-25T08:49:12.824Z,97561.67
2022-07-25T08:51:41.151Z,97557.80
2022-07-25T08:54:10.819Z,97559.70
2022-07-25T08:56:39.357Z,97559.34
2022-07-25T08:59:07.944Z,97557.76
2022-07-25T09:01:40.334Z,97555.02
2022-07-25T09:04:10.134Z,97560.30
2022-07-25T09:06:53.568Z,97555.50
2022-07-25T09:09:39.667Z,97556.33
2022-07-25T09:12:12.589Z,97563.73
2022-07-25T09:14:43.022Z,97558.50
2022-07-25T09:17:22.519Z,97555.29
2022-07-25T09:19:54.566Z,97556.83
2022-07-25T09:22:23.725Z,97551.08
2022-07-25T09:24:52.365Z,97550.92
2022-07-25T09:27:20.870Z,97553.44
2022-07-25T09:29:50.569Z,97553.29
2022-07-25T09:32:23.529Z,97550.73
2022-07-25T09:34:51.813Z,97550.00
2022-07-25T09:37:26.911Z,97548.91
2022-07-25T09:39:55.216Z,97551.15
2022-07-25T09:42:33.327Z,97549.16
2022-07-25T09:45:08.787Z,97547.94
2022-07-25T09:47:40.457Z,97548.79
2022-07-25T09:50:09.339Z,97548.12
2022-07-25T09:52:38.614Z,97543.41
2022-07-25T09:55:09.718Z,97541.45
2022-07-25T09:57:39.608Z,97539.21
2022-07-25T10:00:10.032Z,97534.31
2022-07-25T10:03:08.785Z,97533.98
2022-07-25T10:06:01.831Z,97535.52
2022-07-25T10:08:35.173Z,97531.84
2022-07-25T10:11:05.373Z,97528.10
2022-07-25T10:13:35.806Z,97523.08
2022-07-25T10:16:21.097Z,97525.76
2022-07-25T10:19:06.339Z,97518.17
2022-07-25T10:21:37.709Z,97514.27
2022-07-25T10:24:08.963Z,97513.38
2022-07-25T10:26:40.220Z,97509.16
2022-07-25T10:29:11.035Z,97509.56
2022-07-25T10:31:50.994Z,97512.16
2022-07-25T10:34:34.302Z,97508.20
2022-07-25T10:37:21.320Z,97502.45
2022-07-25T10:39:49.961Z,97497.61
2022-07-25T10:42:21.971Z,97488.73
2022-07-25T10:44:57.728Z,97483.96
2022-07-25T10:47:31.191Z,97483.08
2022-07-25T10:53:07.970Z,97485.20
2022-07-25T10:55:37.779Z,97480.36
2022-07-25T10:58:22.318Z,97478.15
2022-07-25T11:00:52.977Z,97474.42
2022-07-25T11:03:22.577Z,97478.20
2022-07-25T11:05:55.115Z,97472.20
2022-07-25T11:08:39.883Z,97462.00
2022-07-25T11:11:34.305Z,97455.70
2022-07-25T11:14:14.578Z,97452.17
2022-07-25T11:16:45.638Z,97453.19
2022-07-25T11:19:21.172Z,97439.98
2022-07-25T11:21:52.454Z,97442.91
2022-07-25T11:24:23.259Z,97440.64
2022-07-25T11:26:53.672Z,97433.89
2022-07-25T11:29:24.722Z,97430.00
2022-07-25T11:32:03.555Z,97421.05
2022-07-25T11:34:35.607Z,97422.70
2022-07-25T11:37:09.340Z,97421.66
2022-07-25T11:39:38.568Z,97417.20
2022-07-25T11:42:16.971Z,97415.84
2022-07-25T11:44:58.861Z,97419.02
2022-07-25T11:47:31.947Z,97414.55
2022-07-25T11:50:06.922Z,97413.23
2022-07-25T11:52:38.836Z,97407.98
2022-07-25T11:55:14.658Z,97405.60
2022-07-25T11:58:11.179Z,97402.02
2022-07-25T12:00:56.639Z,97402.96
2022-07-25T12:03:25.441Z,97397.55
2022-07-25T12:05:55.673Z,97390.23
2022-07-25T12:08:24.658Z,97389.40
2022-07-25T12:10:55.050Z,97388.06
2022-07-25T12:13:25.904Z,97382.04
2022-07-25T12:16:00.339Z,97380.23
2022-07-25T12:18:33.688Z,97378.83
2022-07-25T12:21:09.114Z,97377.47
2022-07-25T12:23:42.663Z,97373.65
2022-07-25T12:26:14.725Z,97370.48
2022-07-25T12:28:48.972Z,97373.67
2022-07-25T12:31:18.073Z,97371.42
2022-07-25T12:33:52.324Z,97369.77
2022-07-25T12:36:21.225Z,97369.90
2022-07-25T12:38:50.106Z,97359.38
2022-07-25T12:41:23.871Z,97357.55
2022-07-25T12:43:52.304Z,97358.38
2022-07-25T12:46:21.433Z,97356.62
2022-07-25T12:48:56.292Z,97357.05
2022-07-25T12:51:33.099Z,97357.55
2022-07-25T12:54:05.191Z,97347.69
2022-07-25T12:56:37.734Z,97344.71
2022-07-25T12:59:07.402Z,97342.85
2022-07-25T13:01:39.135Z,97343.26
2022-07-25T13:04:10.264Z,97342.40
2022-07-25T13:06:39.095Z,97340.85
2022-07-25T13:09:08.300Z,97336.25
2022-07-25T13:11:36.773Z,97330.17
2022-07-25T13:14:05.958Z,97331.61
2022-07-25T13:16:34.823Z,97329.13
2022-07-25T13:19:03.434Z,97329.61
2022-07-25T13:21:31.966Z,97325.29
2022-07-25T13:24:00.288Z,97329.45
2022-07-25T13:26:28.675Z,97321.73
2022-07-25T13:29:00.295Z,97318.46
2022-07-25T13:31:29.004Z,97314.51
2022-07-25T13:34:46.936Z,97307.15
2022-07-25T13:36:55.792Z,97305.37
2022-07-25T13:39:24.408Z,97299.48
2022-07-25T13:41:53.729Z,97296.46
2022-07-25T13:44:25.679Z,97299.58
2022-07-25T13:46:55.215Z,97300.40
2022-07-25T13:49:23.398Z,97295.60
2022-07-25T13:51:51.816Z,97296.70
2022-07-25T13:54:22.035Z,97295.40
2022-07-25T13:56:52.242Z,97288.05
2022-07-25T13:59:21.888Z,97287.89
2022-07-25T14:01:54.316Z,97286.52
2022-07-25T14:04:25.631Z,97285.48
2022-07-25T14:06:54.368Z,97282.70
2022-07-25T14:09:24.220Z,97280.30
2022-07-25T14:11:52.452Z,97287.59
2022-07-25T14:14:21.309Z,97283.88
2022-07-25T14:16:50.495Z,97279.08
2022-07-25T14:19:26.219Z,97275.63
2022-07-25T14:22:02.555Z,97274.42
2022-07-25T14:24:31.173Z,97268.27
2022-07-25T14:27:00.623Z,97276.54
2022-07-25T14:29:30.678Z,97269.90
2022-07-25T14:31:59.885Z,97269.54
2022-07-25T14:34:30.336Z,97270.72
2022-07-25T14:37:05.256Z,97268.73
2022-07-25T14:39:35.529Z,97273.26
2022-07-25T14:42:05.077Z,97264.73
2022-07-25T14:44:33.563Z,97261.17
2022-07-25T14:47:03.601Z,97253.63
2022-07-25T14:49:32.913Z,97254.78
2022-07-25T14:52:01.680Z,97257.27
2022-07-25T14:54:29.962Z,97252.64
2022-07-25T14:56:58.428Z,97252.70
2022-07-25T14:59:26.780Z,97248.59
2022-07-25T15:01:55.064Z,97250.66
2022-07-25T15:04:25.321Z,97250.07
2022-07-25T15:06:54.009Z,97252.53
2022-07-25T15:09:22.464Z,97246.61
2022-07-25T15:11:50.700Z,97242.13
2022-07-25T15:14:19.525Z,97242.98
2022-07-25T15:16:48.296Z,97253.62
2022-07-25T15:19:24.750Z,97245.05
2022-07-25T15:21:54.504Z,97238.61
2022-07-25T15:24:27.109Z,97236.95
2022-07-25T15:26:58.498Z,97237.71
2022-07-25T15:29:27.912Z,97239.09
2022-07-25T15:31:56.228Z,97230.06
2022-07-25T15:34:24.869Z,97230.44
2022-07-25T15:36:54.414Z,97232.71
2022-07-25T15:39:23.238Z,97229.12
2022-07-25T15:41:51.397Z,97226.55
2022-07-25T15:44:21.278Z,97228.54
2022-07-25T15:46:52.067Z,97233.23
2022-07-25T15:49:21.922Z,97224.73
2022-07-25T15:51:51.657Z,97227.49
2022-07-25T15:54:19.870Z,97225.44
2022-07-25T15:56:55.659Z,97226.26
2022-07-25T15:59:26.201Z,97229.61
2022-07-25T16:01:54.732Z,97224.67
2022-07-25T16:04:25.824Z,97224.81
2022-07-25T16:06:54.421Z,97227.59
2022-07-25T16:09:22.672Z,97228.72
2022-07-25T16:11:51.070Z,97227.38
2022-07-25T16:14:19.979Z,97224.08
2022-07-25T16:16:48.922Z,97231.31
2022-07-25T16:19:17.040Z,97227.48
2022-07-25T16:21:46.634Z,97227.80
2022-07-25T16:24:14.798Z,97231.34
2022-07-25T16:26:43.066Z,97227.46
2022-07-25T16:29:11.501Z,97229.67
2022-07-25T16:31:41.446Z,97230.25
2022-07-25T16:34:09.859Z,97224.15
2022-07-25T16:36:37.987Z,97225.85
2022-07-25T16:39:06.323Z,97229.42
2022-07-25T16:41:34.742Z,97237.60
2022-07-25T16:44:02.956Z,97236.86
2022-07-25T16:46:31.547Z,97240.00
2022-07-25T16:49:02.427Z,97239.65
2022-07-25T16:51:34.166Z,97237.43
2022-07-25T16:54:05.229Z,97235.17
2022-07-25T16:56:33.922Z,97239.48
2022-07-25T16:59:02.437Z,97246.48
2022-07-25T17:01:32.316Z,97243.05
2022-07-25T17:04:01.196Z,97243.15
2022-07-25T17:06:29.956Z,97241.90
2022-07-25T17:08:58.899Z,97240.77
2022-07-25T17:11:27.425Z,97239.41
2022-07-25T17:13:55.586Z,97241.70
2022-07-25T17:16:23.801Z,97242.11
2022-07-25T17:18:52.096Z,97242.09
2022-07-25T17:21:21.917Z,97241.96
2022-07-25T17:23:53.598Z,97241.38
2022-07-25T17:26:22.167Z,97239.05
2022-07-25T17:28:50.265Z,97240.80
2022-07-25T17:31:18.560Z,97244.95
2022-07-25T17:33:46.906Z,97242.49
2022-07-25T17:36:16.284Z,97244.88
2022-07-25T17:38:44.407Z,97248.20
2022-07-25T17:41:12.845Z,97247.82
2022-07-25T17:43:41.516Z,97248.69
2022-07-25T17:46:13.608Z,97246.85
2022-07-25T17:48:42.073Z,97250.45
2022-07-25T17:51:10.454Z,97252.70
2022-07-25T17:53:38.592Z,97255.14
2022-07-25T17:56:08.484Z,97253.59
2022-07-25T17:58:37.535Z,97257.96
2022-07-25T18:01:10.287Z,97260.00
2022-07-25T18:03:38.908Z,97258.67
2022-07-25T18:06:07.322Z,97257.11
2022-07-25T18:08:35.972Z,97258.70
2022-07-25T18:11:04.072Z,97260.36
2022-07-25T18:13:32.273Z,97261.95
2022-07-25T18:16:00.415Z,97267.20
2022-07-25T18:18:28.636Z,97264.43
2022-07-25T18:20:57.251Z,97265.48
2022-07-25T18:23:27.168Z,97263.34
2022-07-25T18:25:55.406Z,97266.73
2022-07-25T18:28:25.110Z,97266.71
2022-07-25T18:30:55.172Z,97267.48
2022-07-25T18:33:23.544Z,97268.25
2022-07-25T18:35:52.852Z,97268.29
2022-07-25T18:38:20.945Z,97271.02
2022-07-25T18:40:51.629Z,97273.97
2022-07-25T18:43:25.897Z,97273.90
2022-07-25T18:45:56.270Z,97275.83
2022-07-25T18:48:28.941Z,97274.66
2022-07-25T18:50:57.164Z,97274.45
2022-07-25T18:53:25.238Z,97276.27
2022-07-25T18:55:53.386Z,97279.93
2022-07-25T18:58:21.499Z,97283.05
2022-07-25T19:00:49.665Z,97282.96
2022-07-25T19:03:17.744Z,97281.20
2022-07-25T19:05:46.944Z,97283.27
2022-07-25T19:08:16.475Z,97284.52
2022-07-25T19:10:44.615Z,97283.47
2022-07-25T19:13:26.793Z,97288.31
2022-07-25T19:16:02.274Z,97285.52
2022-07-25T19:18:30.401Z,97290.75
2022-07-25T19:20:58.821Z,97295.10
2022-07-25T19:23:27.552Z,97299.52
2022-07-25T19:25:56.404Z,97300.19
2022-07-25T19:28:24.835Z,97303.31
2022-07-25T19:30:53.023Z,97305.33
2022-07-25T19:33:21.272Z,97307.57
2022-07-25T19:35:49.607Z,97307.18
2022-07-25T19:38:17.845Z,97311.40
2022-07-25T19:40:46.794Z,97311.34
2022-07-25T19:43:15.381Z,97314.77
2022-07-25T19:45:43.695Z,97313.48
2022-07-25T19:48:11.938Z,97319.80
2022-07-25T19:50:40.036Z,97317.52
2022-07-25T19:53:08.959Z,97314.89
2022-07-25T19:55:36.957Z,97314.98
2022-07-25T19:58:08.555Z,97314.05
2022-07-25T20:00:39.719Z,97317.55
2022-07-25T20:03:07.839Z,97316.17
2022-07-25T20:05:36.090Z,97317.31
2022-07-25T20:08:04.457Z,97317.11
2022-07-25T20:10:32.640Z,97315.90
2022-07-25T20:13:01.646Z,97317.23
2022-07-25T20:15:29.745Z,97319.86
2022-07-25T20:17:58.248Z,97320.09
2022-07-25T20:20:26.994Z,97320.41
2022-07-25T20:22:55.248Z,97318.55
2022-07-25T20:25:23.400Z,97315.90
2022-07-25T20:27:51.342Z,97318.77
2022-07-25T20:30:20.112Z,97321.74
2022-07-25T20:32:48.284Z,97319.23
2022-07-25T20:35:16.332Z,97316.04
2022-07-25T20:37:44.750Z,97322.59
2022-07-25T20:40:13.332Z,97322.98
2022-07-25T20:42:42.239Z,97327.96
2022-07-25T20:45:10.616Z,97328.89
2022-07-25T20:47:39.174Z,97330.24
2022-07-25T20:50:09.483Z,97331.30
2022-07-25T20:52:38.708Z,97332.84
2022-07-25T20:55:09.043Z,97333.02
2022-07-25T20:57:37.087Z,97332.04
2022-07-25T21:00:05.465Z,97331.30
2022-07-25T21:02:36.759Z,97330.04
2022-07-25T21:05:05.214Z,97328.73
2022-07-25T21:07:33.446Z,97331.70
2022-07-25T21:10:01.518Z,97327.92
2022-07-25T21:12:32.534Z,97325.42
2022-07-25T21:15:01.435Z,97323.56
2022-07-25T21:17:30.887Z,97320.40
2022-07-25T21:19:59.128Z,97320.56
2022-07-25T21:22:27.648Z,97323.47
2022-07-25T21:24:55.708Z,97324.23
2022-07-25T21:27:23.996Z,97317.64
2022-07-25T21:29:52.022Z,97315.91
2022-07-25T21:32:21.470Z,97317.21
2022-07-25T21:34:50.024Z,97321.02
2022-07-25T21:37:18.414Z,97317.92
2022-07-25T21:39:46.690Z,97315.98
2022-07-25T21:42:15.365Z,97316.79
2022-07-25T21:44:45.467Z,97320.71
2022-07-25T21:47:13.691Z,97319.27
2022-07-25T21:50:10.777Z,97318.29
2022-07-25T21:52:42.726Z,97317.48
2022-07-25T21:55:10.811Z,97317.36
2022-07-25T21:57:38.805Z,97315.02
2022-07-25T22:00:10.013Z,97311.19
2022-07-25T22:02:47.510Z,97302.66
2022-07-25T22:05:16.589Z,97304.91
2022-07-25T22:07:47.061Z,97301.35
2022-07-25T22:10:17.374Z,97303.81
2022-07-25T22:12:45.856Z,97303.74
2022-07-25T22:15:14.498Z,97303.52
2022-07-25T22:17:48.433Z,97301.85
2022-07-25T22:20:18.964Z,97299.07
2022-07-25T22:22:48.617Z,97303.40
2022-07-25T22:25:17.269Z,97305.33
2022-07-25T22:27:45.480Z,97305.30
2022-07-25T22:30:19.187Z,97309.69
2022-07-25T22:32:49.657Z,97313.20
2022-07-25T22:35:18.426Z,97308.31
2022-07-25T22:37:46.630Z,97309.80
2022-07-25T22:40:14.908Z,97313.58
2022-07-25T22:42:43.190Z,97308.95
2022-07-25T22:45:11.360Z,97311.71
2022-07-25T22:47:39.661Z,97315.25
2022-07-25T22:50:08.553Z,97311.90
2022-07-25T22:52:36.576Z,97314.39
2022-07-25T22:55:04.858Z,97310.69
2022-07-25T22:57:36.806Z,97308.67
2022-07-25T23:00:11.190Z,97304.16
2022-07-25T23:02:39.912Z,97306.48
2022-07-25T23:05:08.820Z,97302.77
2022-07-25T23:07:37.220Z,97301.43
2022-07-25T23:10:07.067Z,97297.71
2022-07-25T23:12:35.234Z,97298.19
2022-07-25T23:15:04.068Z,97295.11
2022-07-25T23:17:32.005Z,97292.42
2022-07-25T23:20:00.072Z,97289.63
2022-07-25T23:22:28.828Z,97289.56
2022-07-25T23:24:57.372Z,97290.67
2022-07-25T23:27:26.425Z,97290.39
2022-07-25T23:29:54.465Z,97289.25
2022-07-25T23:32:22.577Z,97287.04
2022-07-25T23:34:50.633Z,97283.05
2022-07-25T23:37:18.645Z,97282.13
2022-07-25T23:39:46.803Z,97279.52
2022-07-25T23:42:14.786Z,97280.39
2022-07-25T23:44:44.531Z,97280.64
2022-07-25T23:47:12.662Z,97276.37
2022-07-25T23:49:41.292Z,97278.85
2022-07-25T23:52:09.423Z,97280.72
2022-07-25T23:54:38.686Z,97278.70
2022-07-25T23:57:08.217Z,97280.13
2022-07-25T23:59:36.222Z,97281.69
